Time;durP1;ratioP1;P1;durP2;ratioP2;P2;SDS_P1;SDS_P2;PMS_P1;PMS_P2;Temp;Humidity;BMP_temperature;BMP_pressure;BME280_temperature;BME280_humidity;BME280_pressure;Samples;Min_cycle;Max_cycle;Signal;HPM_P1;HPM_P2
2023/03/31 00:00:48;;;;;;;15.13;2.80;;;13.80;99.90;;;;;;7305507;19;20195;-74
2023/03/31 00:03:20;;;;;;;18.43;3.10;;;13.70;99.90;;;;;;7283239;19;20184;-74
2023/03/31 00:05:47;;;;;;;19.07;3.10;;;13.50;99.90;;;;;;7271316;19;20186;-74
2023/03/31 00:08:13;;;;;;;19.27;3.33;;;13.50;99.90;;;;;;7305578;19;20540;-74
2023/03/31 00:10:44;;;;;;;21.43;2.93;;;13.50;99.90;;;;;;7280829;19;20189;-74
2023/03/31 00:13:10;;;;;;;16.53;3.03;;;13.50;99.90;;;;;;7283500;19;20219;-74
2023/03/31 00:15:36;;;;;;;17.80;3.20;;;13.50;99.90;;;;;;7283388;19;20208;-74
2023/03/31 00:18:02;;;;;;;16.37;2.63;;;13.50;99.90;;;;;;7283139;19;20666;-74
2023/03/31 00:20:28;;;;;;;16.87;2.90;;;13.40;99.90;;;;;;7283593;19;20534;-74
2023/03/31 00:22:56;;;;;;;15.47;2.60;;;13.40;99.90;;;;;;7282959;19;20258;-74
2023/03/31 00:25:22;;;;;;;17.90;2.73;;;13.30;99.90;;;;;;7281306;19;20292;-74
2023/03/31 00:27:49;;;;;;;14.93;2.60;;;13.20;99.90;;;;;;7282932;19;20640;-74
2023/03/31 00:30:15;;;;;;;18.20;2.50;;;13.20;99.90;;;;;;7304451;19;20198;-74
2023/03/31 00:32:41;;;;;;;17.60;3.07;;;13.20;99.90;;;;;;7282919;19;20252;-74
2023/03/31 00:35:07;;;;;;;23.37;3.37;;;13.20;99.90;;;;;;7282666;19;20185;-73
2023/03/31 00:37:33;;;;;;;20.47;3.60;;;13.10;99.90;;;;;;7281872;19;20253;-74
2023/03/31 00:39:59;;;;;;;18.90;3.23;;;13.10;99.90;;;;;;7282628;19;20197;-74
2023/03/31 00:42:25;;;;;;;24.33;4.10;;;13.00;99.90;;;;;;7281470;19;20190;-74
2023/03/31 00:45:28;;;;;;;21.70;3.60;;;13.00;99.90;;;;;;7280445;19;20650;-74
2023/03/31 00:48:04;;;;;;;18.73;3.07;;;12.90;99.90;;;;;;7178438;19;2004973;-74
2023/03/31 00:50:40;;;;;;;19.83;3.63;;;12.90;99.90;;;;;;7281495;19;20549;-74
2023/03/31 00:53:11;;;;;;;19.43;2.87;;;12.80;99.90;;;;;;7280809;19;20191;-74
2023/03/31 00:55:51;;;;;;;26.90;3.47;;;12.60;99.90;;;;;;7281967;19;20222;-74
2023/03/31 00:58:19;;;;;;;21.17;2.90;;;12.60;99.90;;;;;;7258313;19;20662;-74
2023/03/31 01:00:52;;;;;;;16.90;2.40;;;12.60;99.90;;;;;;7299507;19;20198;-73
2023/03/31 01:03:21;;;;;;;17.10;2.43;;;12.50;99.90;;;;;;7281716;19;20190;-74
2023/03/31 01:05:53;;;;;;;20.13;2.77;;;12.50;99.90;;;;;;7282716;19;20272;-74
2023/03/31 01:08:24;;;;;;;23.07;2.53;;;12.30;99.90;;;;;;7281582;19;20198;-74
2023/03/31 01:10:53;;;;;;;15.83;2.47;;;12.40;99.90;;;;;;7286735;19;20199;-74
2023/03/31 01:13:21;;;;;;;16.93;2.60;;;12.50;99.90;;;;;;7289269;19;20214;-74
2023/03/31 01:15:47;;;;;;;16.20;2.37;;;12.50;99.90;;;;;;7292548;19;20568;-74
2023/03/31 01:18:15;;;;;;;17.17;2.40;;;12.50;99.90;;;;;;7308275;19;20208;-74
2023/03/31 01:21:09;;;;;;;15.50;2.53;;;12.40;99.90;;;;;;7289567;19;20190;-74
2023/03/31 01:23:55;;;;;;;16.07;2.60;;;12.40;99.90;;;;;;7185759;19;2004614;-74
2023/03/31 01:26:45;;;;;;;16.70;3.13;;;12.30;99.90;;;;;;7183949;19;2004518;-74
2023/03/31 01:29:40;;;;;;;12.60;2.43;;;12.30;99.90;;;;;;7287189;19;20665;-74
2023/03/31 01:32:41;;;;;;;23.13;3.17;;;12.20;99.90;;;;;;7184962;19;2005831;-74
2023/03/31 01:35:34;;;;;;;15.00;2.63;;;12.30;99.90;;;;;;7185661;19;2004373;-74
2023/03/31 01:38:43;;;;;;;11.50;2.50;;;12.20;99.90;;;;;;7184541;19;2004692;-74
2023/03/31 01:41:20;;;;;;;13.17;1.87;;;12.00;99.90;;;;;;7183281;19;2004437;-74
2023/03/31 01:44:18;;;;;;;15.50;2.13;;;12.00;99.90;;;;;;7284120;19;20366;-74
2023/03/31 01:46:56;;;;;;;10.47;1.73;;;11.90;99.90;;;;;;7288609;19;20190;-74
2023/03/31 01:49:52;;;;;;;13.07;2.10;;;11.90;99.90;;;;;;7184507;19;2004998;-74
2023/03/31 01:52:43;;;;;;;13.50;2.13;;;11.90;99.90;;;;;;7264457;19;20184;-74
2023/03/31 01:55:23;;;;;;;21.80;2.17;;;12.00;99.90;;;;;;7287205;19;20214;-75
2023/03/31 01:58:02;;;;;;;12.53;1.80;;;12.00;99.90;;;;;;7263207;19;20189;-74
2023/03/31 02:00:32;;;;;;;11.10;1.77;;;12.00;99.90;;;;;;7286281;19;20278;-74
2023/03/31 02:03:16;;;;;;;10.30;1.73;;;11.90;99.90;;;;;;7286645;19;20542;-75
2023/03/31 02:05:47;;;;;;;13.33;1.97;;;11.70;99.90;;;;;;7286754;19;20723;-74
2023/03/31 02:08:25;;;;;;;12.17;1.90;;;11.60;99.90;;;;;;7286740;19;20664;-74
2023/03/31 02:10:52;;;;;;;13.47;1.60;;;11.70;99.90;;;;;;7182960;19;2004574;-74
2023/03/31 02:13:21;;;;;;;15.50;2.10;;;11.70;99.90;;;;;;7287561;19;20294;-74
2023/03/31 02:15:51;;;;;;;9.60;1.70;;;11.70;99.90;;;;;;7286806;19;20201;-74
2023/03/31 02:18:24;;;;;;;13.67;2.03;;;11.60;99.90;;;;;;7285418;19;20198;-74
2023/03/31 02:20:56;;;;;;;11.23;2.23;;;11.60;99.90;;;;;;7286759;19;20194;-74
2023/03/31 02:23:30;;;;;;;10.67;1.50;;;11.60;99.90;;;;;;7285977;19;20649;-74
2023/03/31 02:26:22;;;;;;;10.97;1.70;;;11.70;99.90;;;;;;7286110;19;20192;-74
2023/03/31 02:28:49;;;;;;;9.73;1.80;;;11.70;99.90;;;;;;7263896;19;20301;-74
2023/03/31 02:31:24;;;;;;;9.87;1.50;;;11.70;99.90;;;;;;7305867;19;20196;-74
2023/03/31 02:33:50;;;;;;;9.37;1.40;;;11.80;99.90;;;;;;7263393;19;20192;-74
2023/03/31 02:36:16;;;;;;;9.13;1.50;;;11.80;99.90;;;;;;7306820;19;20225;-74
2023/03/31 02:39:10;;;;;;;9.40;1.60;;;11.80;99.90;;;;;;7301515;19;20189;-74
2023/03/31 02:41:37;;;;;;;10.07;1.60;;;11.90;99.90;;;;;;7183279;19;2005090;-74
2023/03/31 02:44:03;;;;;;;13.73;2.00;;;11.80;99.90;;;;;;7284647;19;20203;-74
2023/03/31 02:46:29;;;;;;;9.33;1.70;;;11.80;99.90;;;;;;7284628;19;20253;-74
2023/03/31 02:48:58;;;;;;;10.37;1.53;;;11.80;99.90;;;;;;7284365;19;20192;-74
2023/03/31 02:51:52;;;;;;;12.00;1.50;;;11.80;99.90;;;;;;7283759;19;20205;-74
2023/03/31 02:54:47;;;;;;;12.70;1.83;;;11.90;99.90;;;;;;7261910;19;20319;-74
2023/03/31 02:57:36;;;;;;;13.53;1.60;;;12.10;99.90;;;;;;7283973;19;20200;-75
2023/03/31 03:00:06;;;;;;;12.80;2.03;;;12.10;99.90;;;;;;7183182;19;2005043;-74
2023/03/31 03:03:10;;;;;;;12.83;1.50;;;12.10;99.90;;;;;;7283875;19;20198;-74
2023/03/31 03:05:48;;;;;;;10.27;1.80;;;12.00;99.90;;;;;;7182405;19;2004534;-74
2023/03/31 03:08:54;;;;;;;12.40;2.17;;;11.90;99.90;;;;;;7180698;19;2004667;-74
2023/03/31 03:11:51;;;;;;;16.37;2.40;;;11.80;99.90;;;;;;7262207;19;20712;-74
2023/03/31 03:14:29;;;;;;;16.87;2.47;;;11.80;99.90;;;;;;7268344;19;20189;-74
2023/03/31 03:17:16;;;;;;;13.93;2.13;;;11.80;99.90;;;;;;7282959;19;20224;-74
2023/03/31 03:19:42;;;;;;;18.60;2.00;;;11.80;99.90;;;;;;7284200;19;20260;-74
2023/03/31 03:22:08;;;;;;;16.20;2.47;;;11.80;99.90;;;;;;7284836;19;20194;-75
2023/03/31 03:24:34;;;;;;;18.93;2.73;;;11.90;99.90;;;;;;7283540;19;20200;-74
2023/03/31 03:27:00;;;;;;;14.83;2.00;;;11.80;99.90;;;;;;7284880;19;20645;-75
2023/03/31 03:29:26;;;;;;;17.47;2.30;;;11.70;99.90;;;;;;7282946;19;20622;-75
2023/03/31 03:31:52;;;;;;;15.30;2.43;;;11.80;99.90;;;;;;7281984;19;20210;-75
2023/03/31 03:34:19;;;;;;;14.57;2.33;;;11.80;99.90;;;;;;7283097;19;20181;-74
2023/03/31 03:36:45;;;;;;;11.97;2.33;;;12.00;99.90;;;;;;7305507;19;20195;-75
2023/03/31 03:39:11;;;;;;;15.10;2.57;;;12.20;99.90;;;;;;7284067;19;20213;-75
2023/03/31 03:41:37;;;;;;;9.23;1.40;;;12.20;99.90;;;;;;7285088;19;20781;-75
2023/03/31 03:44:03;;;;;;;8.77;1.33;;;12.00;99.90;;;;;;7284181;19;20664;-75
2023/03/31 03:46:29;;;;;;;9.30;1.70;;;11.80;99.90;;;;;;7283903;19;20224;-76
2023/03/31 03:48:55;;;;;;;7.67;1.40;;;11.70;99.90;;;;;;7286022;19;20207;-74
2023/03/31 03:51:22;;;;;;;6.77;1.40;;;11.70;99.90;;;;;;7283167;19;20196;-76
2023/03/31 03:53:47;;;;;;;7.10;1.40;;;11.70;99.90;;;;;;7286666;19;20189;-75
2023/03/31 03:56:13;;;;;;;9.37;1.40;;;11.80;99.90;;;;;;7306570;19;20282;-75
2023/03/31 03:58:39;;;;;;;9.03;1.47;;;11.80;99.90;;;;;;7283457;19;20183;-75
2023/03/31 04:01:04;;;;;;;9.20;1.57;;;11.80;99.90;;;;;;7283842;19;20192;-75
2023/03/31 04:03:30;;;;;;;6.77;1.27;;;11.70;99.90;;;;;;7282861;19;20186;-75
2023/03/31 04:05:56;;;;;;;9.63;1.50;;;11.70;99.90;;;;;;7282168;19;20186;-74
2023/03/31 04:08:22;;;;;;;8.83;1.50;;;11.40;99.90;;;;;;7268092;19;20187;-75
2023/03/31 04:10:49;;;;;;;9.13;1.70;;;11.30;99.90;;;;;;7282917;19;20266;-75
2023/03/31 04:13:16;;;;;;;9.43;1.73;;;11.20;99.90;;;;;;7304591;19;20196;-75
2023/03/31 04:15:42;;;;;;;7.47;1.87;;;11.30;99.90;;;;;;7283414;19;20193;-75
2023/03/31 04:18:09;;;;;;;11.80;2.10;;;11.30;99.90;;;;;;7279462;19;20186;-74
2023/03/31 04:20:37;;;;;;;12.37;2.00;;;11.50;99.90;;;;;;7282481;19;20193;-74
2023/03/31 04:23:08;;;;;;;12.47;1.87;;;11.50;99.90;;;;;;7281879;19;20190;-75
2023/03/31 04:25:37;;;;;;;13.20;2.13;;;11.60;99.90;;;;;;7279819;19;20199;-75
2023/03/31 04:28:05;;;;;;;17.50;2.30;;;11.50;99.90;;;;;;7283165;19;20205;-75
2023/03/31 04:30:32;;;;;;;8.57;1.93;;;11.50;99.90;;;;;;7268689;19;20186;-75
2023/03/31 04:33:01;;;;;;;16.07;2.20;;;11.50;99.90;;;;;;7267967;19;20192;-75
2023/03/31 04:38:13;;;;;;;14.93;2.10;;;11.60;99.90;;;;;;7284462;19;20273;-75
2023/03/31 04:40:40;;;;;;;16.63;2.20;;;11.60;99.90;;;;;;7282176;19;20324;-74
2023/03/31 04:43:06;;;;;;;12.30;1.90;;;11.70;99.90;;;;;;7280781;19;20193;-74
2023/03/31 04:45:31;;;;;;;11.27;1.77;;;11.80;99.90;;;;;;7287708;19;20199;-75
2023/03/31 04:47:57;;;;;;;14.17;2.30;;;11.80;99.90;;;;;;7289206;19;20195;-75
2023/03/31 04:50:22;;;;;;;15.20;2.53;;;11.80;99.90;;;;;;7287443;19;20917;-75
2023/03/31 04:52:48;;;;;;;16.07;2.27;;;11.90;99.90;;;;;;7272691;19;20657;-74
2023/03/31 04:55:14;;;;;;;15.03;2.50;;;11.90;99.90;;;;;;7309726;19;20602;-75
2023/03/31 04:57:40;;;;;;;11.20;2.37;;;12.00;99.90;;;;;;7288577;19;20236;-73
2023/03/31 05:00:07;;;;;;;12.10;2.37;;;12.00;99.90;;;;;;7274757;19;20190;-74
2023/03/31 05:02:33;;;;;;;17.17;2.53;;;12.00;99.90;;;;;;7287245;19;20654;-75
2023/03/31 05:04:59;;;;;;;15.70;2.90;;;12.10;99.90;;;;;;7288721;19;20199;-75
2023/03/31 05:07:25;;;;;;;17.90;2.50;;;12.00;99.90;;;;;;7283090;19;20200;-75
2023/03/31 05:09:50;;;;;;;16.30;2.40;;;12.00;99.90;;;;;;7285741;19;20212;-75
2023/03/31 05:12:16;;;;;;;15.50;2.70;;;12.00;99.90;;;;;;7304438;19;20201;-74
2023/03/31 05:14:42;;;;;;;14.23;2.20;;;12.10;99.90;;;;;;7297821;19;20196;-75
2023/03/31 05:17:08;;;;;;;16.80;2.53;;;12.10;99.90;;;;;;7286380;19;21050;-74
2023/03/31 05:19:33;;;;;;;11.77;2.30;;;12.10;99.90;;;;;;7287381;19;20189;-74
2023/03/31 05:21:59;;;;;;;17.60;2.50;;;12.00;99.90;;;;;;7287798;19;20656;-75
2023/03/31 05:24:27;;;;;;;12.97;2.47;;;12.00;99.90;;;;;;7288250;19;20198;-75
2023/03/31 05:26:53;;;;;;;15.63;3.00;;;12.00;99.90;;;;;;7288872;19;20190;-75
2023/03/31 05:29:19;;;;;;;17.17;2.53;;;12.00;99.90;;;;;;7288324;19;20186;-75
2023/03/31 05:31:45;;;;;;;17.50;2.83;;;12.00;99.90;;;;;;7306664;19;20192;-75
2023/03/31 05:34:11;;;;;;;17.77;3.20;;;12.10;99.90;;;;;;7285075;19;20189;-75
2023/03/31 05:36:36;;;;;;;12.50;2.47;;;12.00;99.90;;;;;;7282803;19;20196;-75
2023/03/31 05:39:06;;;;;;;13.40;2.20;;;12.00;99.90;;;;;;7286558;19;20196;-75
2023/03/31 05:41:33;;;;;;;19.73;2.50;;;12.00;99.90;;;;;;7286394;19;21374;-75
2023/03/31 05:43:58;;;;;;;17.77;2.57;;;12.00;99.90;;;;;;7286798;19;20197;-75
2023/03/31 05:46:25;;;;;;;15.23;2.60;;;12.00;99.90;;;;;;7287057;19;20657;-75
2023/03/31 05:48:51;;;;;;;15.27;3.03;;;12.10;99.90;;;;;;7284004;19;20250;-75
2023/03/31 05:51:17;;;;;;;17.10;2.80;;;12.10;99.90;;;;;;7305110;19;20189;-75
2023/03/31 05:53:43;;;;;;;15.70;2.70;;;12.20;99.90;;;;;;7285389;19;21068;-75
2023/03/31 05:56:09;;;;;;;13.57;2.10;;;12.20;99.90;;;;;;7286746;19;20283;-75
2023/03/31 05:58:36;;;;;;;14.07;2.60;;;12.20;99.90;;;;;;7286002;19;20568;-75
2023/03/31 06:01:21;;;;;;;17.03;3.03;;;12.30;99.90;;;;;;7287595;19;20201;-76
2023/03/31 06:03:47;;;;;;;18.40;2.40;;;12.40;99.90;;;;;;7276940;19;20196;-75
2023/03/31 06:06:15;;;;;;;16.07;3.00;;;12.40;99.90;;;;;;7308648;19;20194;-75
2023/03/31 06:08:42;;;;;;;16.73;2.70;;;12.40;99.90;;;;;;7287577;19;20221;-75
2023/03/31 06:11:10;;;;;;;18.13;3.13;;;12.40;99.90;;;;;;7286442;19;20185;-76
2023/03/31 06:13:36;;;;;;;16.40;3.30;;;12.40;99.90;;;;;;7286670;19;20191;-76
2023/03/31 06:16:02;;;;;;;16.33;3.23;;;12.40;99.90;;;;;;7287255;19;20193;-75
2023/03/31 06:18:29;;;;;;;19.80;3.10;;;12.50;99.90;;;;;;7284766;19;20257;-75
2023/03/31 06:20:55;;;;;;;18.70;3.13;;;12.50;99.90;;;;;;7286993;19;20651;-75
2023/03/31 06:23:21;;;;;;;19.13;3.03;;;12.70;99.90;;;;;;7286483;19;20182;-74
2023/03/31 06:25:47;;;;;;;14.70;2.30;;;12.70;99.90;;;;;;7301834;19;20184;-75
2023/03/31 06:28:13;;;;;;;19.70;3.20;;;12.80;99.90;;;;;;7306072;19;20190;-75
2023/03/31 06:30:39;;;;;;;19.23;3.13;;;12.80;99.90;;;;;;7285126;19;20331;-76
2023/03/31 06:33:05;;;;;;;18.03;3.30;;;12.80;99.90;;;;;;7284876;19;20189;-75
2023/03/31 06:35:31;;;;;;;18.00;3.07;;;12.90;99.90;;;;;;7285939;19;20678;-76
2023/03/31 06:37:57;;;;;;;18.77;3.27;;;12.90;99.90;;;;;;7285181;19;20198;-75
2023/03/31 06:40:23;;;;;;;19.10;3.13;;;13.10;99.90;;;;;;7284036;19;20190;-75
2023/03/31 06:42:48;;;;;;;21.83;3.23;;;13.10;99.90;;;;;;7284013;19;20182;-75
2023/03/31 06:45:15;;;;;;;21.10;3.17;;;13.10;99.90;;;;;;7304892;19;20190;-75
2023/03/31 06:47:41;;;;;;;18.80;3.43;;;13.10;99.90;;;;;;7283186;19;20197;-75
2023/03/31 06:50:08;;;;;;;17.50;2.87;;;13.20;99.90;;;;;;7283916;19;20212;-76
2023/03/31 06:52:35;;;;;;;21.50;3.73;;;13.20;99.90;;;;;;7282876;19;20187;-76
2023/03/31 06:55:01;;;;;;;15.67;3.33;;;13.20;99.90;;;;;;7284302;19;20232;-76
2023/03/31 06:57:28;;;;;;;18.10;3.00;;;13.30;99.90;;;;;;7284821;19;20278;-76
2023/03/31 06:59:54;;;;;;;16.50;3.13;;;13.30;99.90;;;;;;7284173;19;20191;-75
2023/03/31 07:02:19;;;;;;;20.67;3.37;;;13.30;99.90;;;;;;7283939;19;20196;-74
2023/03/31 07:04:45;;;;;;;16.90;3.40;;;13.30;99.90;;;;;;7304746;19;20217;-75
2023/03/31 07:07:11;;;;;;;19.53;3.23;;;13.30;99.90;;;;;;7282321;19;20192;-75
2023/03/31 07:09:37;;;;;;;18.07;3.50;;;13.40;99.90;;;;;;7285117;19;20207;-75
2023/03/31 07:12:04;;;;;;;23.43;3.70;;;13.30;99.90;;;;;;7284981;19;20259;-75
2023/03/31 07:14:31;;;;;;;16.77;3.13;;;13.40;99.90;;;;;;7285198;19;20526;-75
2023/03/31 07:16:57;;;;;;;20.00;3.27;;;13.50;99.90;;;;;;7284060;19;20822;-75
2023/03/31 07:19:22;;;;;;;26.47;3.23;;;13.40;99.90;;;;;;7284140;19;20210;-79
2023/03/31 07:21:48;;;;;;;19.63;3.57;;;13.50;99.90;;;;;;7289049;19;20298;-76
2023/03/31 07:24:14;;;;;;;20.87;3.60;;;13.40;99.90;;;;;;7307922;19;20600;-77
2023/03/31 07:26:40;;;;;;;19.73;3.27;;;13.50;99.90;;;;;;7285321;19;20219;-77
2023/03/31 07:29:06;;;;;;;21.23;3.93;;;13.30;99.90;;;;;;7285577;19;20190;-77
2023/03/31 07:31:32;;;;;;;20.07;3.80;;;13.20;99.90;;;;;;7283546;19;20197;-76
2023/03/31 07:33:58;;;;;;;17.43;3.53;;;13.20;99.90;;;;;;7285675;19;20218;-80
2023/03/31 07:36:23;;;;;;;23.17;4.20;;;13.10;99.90;;;;;;7285415;19;20196;-79
2023/03/31 07:38:49;;;;;;;22.27;4.70;;;13.00;99.90;;;;;;7285232;19;20541;-79
2023/03/31 07:41:20;;;;;;;24.27;4.67;;;13.00;99.90;;;;;;7307819;19;20590;-79
2023/03/31 07:43:46;;;;;;;20.80;3.97;;;12.90;99.90;;;;;;7285834;19;20648;-80
2023/03/31 07:46:25;;;;;;;21.53;3.87;;;13.00;99.90;;;;;;7286017;19;20186;-80
2023/03/31 07:48:54;;;;;;;22.90;4.33;;;13.00;99.90;;;;;;7183747;19;2004539;-80
2023/03/31 07:51:22;;;;;;;25.60;4.57;;;13.00;99.90;;;;;;7285159;19;20693;-79
2023/03/31 07:53:50;;;;;;;26.30;4.73;;;13.00;99.90;;;;;;7293883;19;20191;-78
2023/03/31 07:56:21;;;;;;;27.63;4.67;;;13.10;99.90;;;;;;7307220;19;20209;-78
2023/03/31 07:58:47;;;;;;;23.30;4.27;;;13.00;99.90;;;;;;7282239;19;20255;-79
2023/03/31 08:01:18;;;;;;;26.90;4.03;;;13.00;99.90;;;;;;7299798;19;20698;-78
2023/03/31 08:03:45;;;;;;;21.90;3.97;;;13.10;99.90;;;;;;7285933;19;20198;-78
2023/03/31 08:06:11;;;;;;;23.63;3.90;;;13.20;99.90;;;;;;7284748;19;20198;-78
2023/03/31 08:08:42;;;;;;;25.77;3.67;;;13.30;99.90;;;;;;7283922;19;20293;-78
2023/03/31 08:11:09;;;;;;;18.83;3.30;;;13.20;99.90;;;;;;7283446;19;20323;-78
2023/03/31 08:13:35;;;;;;;22.23;3.70;;;13.10;99.90;;;;;;7282617;19;20522;-78
2023/03/31 08:16:01;;;;;;;20.23;3.43;;;13.10;99.90;;;;;;7285762;19;20297;-78
2023/03/31 08:18:26;;;;;;;20.77;3.67;;;13.20;99.90;;;;;;7284090;19;20206;-78
2023/03/31 08:20:52;;;;;;;20.83;3.40;;;13.30;99.90;;;;;;7282708;19;20198;-79
2023/03/31 08:23:17;;;;;;;22.17;3.20;;;13.40;99.90;;;;;;7297246;19;20195;-78
2023/03/31 08:25:43;;;;;;;17.90;3.10;;;13.30;99.90;;;;;;7300690;19;20557;-78
2023/03/31 08:28:12;;;;;;;17.60;2.77;;;13.30;99.90;;;;;;7284937;19;20620;-79
2023/03/31 08:30:41;;;;;;;18.73;3.33;;;13.30;99.90;;;;;;7285199;19;20188;-78
2023/03/31 08:33:07;;;;;;;18.37;3.53;;;13.30;99.90;;;;;;7283559;19;20217;-78
2023/03/31 08:35:36;;;;;;;17.60;3.47;;;13.20;99.90;;;;;;7283918;19;20653;-78
2023/03/31 08:38:02;;;;;;;21.23;3.90;;;13.10;99.90;;;;;;7284298;19;21021;-78
2023/03/31 08:40:31;;;;;;;21.37;4.77;;;13.10;99.90;;;;;;7284239;19;20194;-78
2023/03/31 08:43:07;;;;;;;22.07;4.30;;;13.20;99.90;;;;;;7283237;19;20181;-79
2023/03/31 08:45:37;;;;;;;22.37;4.60;;;13.20;99.90;;;;;;7283723;19;20198;-79
2023/03/31 08:48:28;;;;;;;28.80;5.03;;;13.30;99.90;;;;;;7284197;19;20189;-78
2023/03/31 08:51:10;;;;;;;25.13;3.90;;;13.30;99.90;;;;;;7180921;19;2006568;-78
2023/03/31 08:53:56;;;;;;;20.63;3.83;;;13.30;99.90;;;;;;7283171;19;20208;-80
2023/03/31 08:56:25;;;;;;;16.43;3.17;;;13.40;99.90;;;;;;7181968;19;2005054;-78
2023/03/31 08:58:51;;;;;;;23.13;3.47;;;13.40;99.90;;;;;;7281325;19;20192;-78
2023/03/31 09:01:32;;;;;;;20.73;3.37;;;13.30;99.90;;;;;;7303302;19;20183;-78
2023/03/31 09:04:13;;;;;;;18.07;3.37;;;13.30;99.90;;;;;;7281811;19;20272;-78
2023/03/31 09:06:50;;;;;;;20.20;3.10;;;13.20;99.90;;;;;;7284746;19;20179;-79
2023/03/31 09:09:51;;;;;;;22.40;3.63;;;13.30;99.90;;;;;;7283606;19;20189;-78
2023/03/31 09:12:30;;;;;;;25.20;3.60;;;13.20;99.90;;;;;;7180645;19;2004347;-78
2023/03/31 09:15:07;;;;;;;18.83;3.77;;;13.20;99.90;;;;;;7284130;19;20198;-78
2023/03/31 09:17:40;;;;;;;21.70;3.57;;;13.30;99.90;;;;;;7282639;19;20655;-78
2023/03/31 09:20:12;;;;;;;24.97;4.00;;;13.50;99.90;;;;;;7282982;19;20542;-79
2023/03/31 09:22:49;;;;;;;19.50;3.80;;;13.60;99.90;;;;;;7282543;19;20195;-79
2023/03/31 09:25:20;;;;;;;24.27;3.87;;;13.70;99.90;;;;;;7284288;19;20195;-78
2023/03/31 09:27:49;;;;;;;23.93;4.00;;;13.90;99.90;;;;;;7283617;19;20183;-79
2023/03/31 09:30:17;;;;;;;27.57;4.20;;;14.00;99.90;;;;;;7287987;19;20232;-79
2023/03/31 09:32:44;;;;;;;27.70;4.50;;;14.10;99.90;;;;;;7290342;19;20531;-78
2023/03/31 09:35:20;;;;;;;24.83;4.10;;;14.20;99.90;;;;;;7289518;19;20189;-79
2023/03/31 09:37:47;;;;;;;28.73;4.80;;;13.90;99.90;;;;;;7290827;19;20207;-78
2023/03/31 09:40:17;;;;;;;28.90;4.70;;;13.90;99.90;;;;;;7291194;19;20216;-78
2023/03/31 09:42:44;;;;;;;23.80;4.37;;;13.90;99.90;;;;;;7287664;19;20194;-78
2023/03/31 09:45:16;;;;;;;24.57;4.33;;;13.70;99.90;;;;;;7289089;19;20191;-78
2023/03/31 09:47:45;;;;;;;24.53;4.07;;;13.70;99.90;;;;;;7290714;19;20187;-78
2023/03/31 09:50:11;;;;;;;26.53;4.50;;;13.60;99.90;;;;;;7288940;19;20196;-79
2023/03/31 09:52:41;;;;;;;24.67;4.13;;;13.40;99.90;;;;;;7289082;19;20727;-80
2023/03/31 09:55:21;;;;;;;24.30;4.13;;;13.30;99.90;;;;;;7288251;19;22615;-79
2023/03/31 09:57:47;;;;;;;25.23;3.57;;;13.20;99.90;;;;;;7289367;19;20251;-79
2023/03/31 10:00:15;;;;;;;24.57;4.13;;;13.20;99.90;;;;;;7290315;19;20192;-79
2023/03/31 10:03:05;;;;;;;22.70;4.00;;;13.50;99.90;;;;;;7288146;19;20188;-79
2023/03/31 10:05:38;;;;;;;23.40;3.90;;;13.50;99.90;;;;;;7185632;19;2004409;-79
2023/03/31 10:08:10;;;;;;;23.53;3.77;;;13.50;99.90;;;;;;7287934;19;20194;-79
2023/03/31 10:10:37;;;;;;;25.57;3.60;;;13.60;99.90;;;;;;7288217;19;20187;-79
2023/03/31 10:13:09;;;;;;;22.63;3.77;;;13.70;99.90;;;;;;7289559;19;20194;-79
2023/03/31 10:15:38;;;;;;;25.93;3.93;;;13.80;99.90;;;;;;7289160;19;20179;-79
2023/03/31 10:18:04;;;;;;;24.87;4.67;;;13.80;99.90;;;;;;7286858;19;20523;-79
2023/03/31 10:20:37;;;;;;;24.80;3.90;;;13.70;99.90;;;;;;7299693;19;20198;-78
2023/03/31 10:23:16;;;;;;;18.13;3.43;;;13.90;99.90;;;;;;7287069;19;20651;-78
2023/03/31 10:25:42;;;;;;;20.63;4.10;;;14.00;99.90;;;;;;7288050;19;20240;-78
2023/03/31 10:28:16;;;;;;;21.30;3.97;;;14.10;99.90;;;;;;7288646;19;20189;-79
2023/03/31 10:31:02;;;;;;;21.60;4.13;;;14.10;99.90;;;;;;7288028;19;20697;-79
2023/03/31 10:33:33;;;;;;;18.73;3.23;;;14.00;99.90;;;;;;7185751;19;2004416;-78
2023/03/31 10:36:05;;;;;;;23.10;3.50;;;14.00;99.90;;;;;;7287871;19;20236;-79
2023/03/31 10:38:36;;;;;;;22.30;3.33;;;14.00;99.90;;;;;;7288165;19;20220;-78
2023/03/31 10:41:02;;;;;;;22.40;3.93;;;14.10;99.90;;;;;;7289024;19;20218;-78
2023/03/31 10:43:36;;;;;;;25.63;4.97;;;13.80;99.90;;;;;;7288591;19;20868;-79
2023/03/31 10:46:03;;;;;;;22.07;4.00;;;13.90;99.90;;;;;;7287233;19;20199;-78
2023/03/31 10:48:31;;;;;;;23.63;4.40;;;13.90;99.90;;;;;;7288050;19;20196;-79
2023/03/31 10:51:05;;;;;;;22.40;4.00;;;13.80;99.90;;;;;;7287055;19;20188;-79
2023/03/31 10:53:48;;;;;;;24.87;4.20;;;13.70;99.90;;;;;;7288471;19;20205;-79
2023/03/31 10:56:30;;;;;;;25.33;4.77;;;13.60;99.90;;;;;;7286566;19;20192;-79
2023/03/31 10:59:09;;;;;;;28.20;4.37;;;13.60;99.90;;;;;;7183699;19;2004621;-79
2023/03/31 11:02:10;;;;;;;28.20;4.23;;;13.50;99.90;;;;;;7285007;19;20205;-79
2023/03/31 11:04:57;;;;;;;25.47;4.20;;;13.30;99.90;;;;;;7185512;19;2005036;-79
2023/03/31 11:07:33;;;;;;;26.63;4.97;;;13.40;99.90;;;;;;7185022;19;2004653;-79
2023/03/31 11:10:27;;;;;;;21.40;4.27;;;13.40;99.90;;;;;;7285939;19;20298;-79
2023/03/31 11:12:55;;;;;;;19.30;3.80;;;13.40;99.90;;;;;;7184190;19;2005115;-79
2023/03/31 11:15:33;;;;;;;22.73;3.70;;;13.50;99.90;;;;;;7285044;19;20184;-79
2023/03/31 11:18:20;;;;;;;18.70;3.17;;;13.70;99.90;;;;;;7282780;19;20216;-79
2023/03/31 11:20:50;;;;;;;19.43;3.13;;;13.90;99.90;;;;;;7288285;19;20198;-79
2023/03/31 11:23:23;;;;;;;11.43;2.40;;;13.90;99.90;;;;;;7285725;19;20189;-79
2023/03/31 11:26:01;;;;;;;18.07;3.20;;;13.90;99.90;;;;;;7275569;19;20187;-79
2023/03/31 11:29:10;;;;;;;20.10;3.47;;;13.80;99.90;;;;;;7284580;19;20263;-79
2023/03/31 11:31:46;;;;;;;19.17;3.73;;;14.00;99.90;;;;;;7182947;19;2006114;-79
2023/03/31 11:34:24;;;;;;;15.17;3.17;;;14.20;99.90;;;;;;7285318;19;20186;-78
2023/03/31 11:37:06;;;;;;;17.43;3.23;;;14.20;99.90;;;;;;7264338;19;20717;-78
2023/03/31 11:39:40;;;;;;;14.57;2.77;;;14.30;99.90;;;;;;7283768;19;20200;-79
2023/03/31 11:42:17;;;;;;;19.93;3.07;;;14.30;99.90;;;;;;7285819;19;20197;-78
2023/03/31 11:44:51;;;;;;;18.70;2.83;;;14.20;99.90;;;;;;7286370;19;20193;-78
2023/03/31 11:47:40;;;;;;;17.30;2.47;;;14.20;99.90;;;;;;7284748;19;20619;-78
2023/03/31 11:50:13;;;;;;;19.53;3.03;;;14.30;99.90;;;;;;7181033;19;2005026;-79
2023/03/31 11:52:44;;;;;;;15.37;2.40;;;14.50;99.90;;;;;;7283467;19;20510;-79
2023/03/31 11:55:20;;;;;;;14.50;2.37;;;14.40;99.90;;;;;;7288390;19;20321;-78
2023/03/31 11:58:08;;;;;;;17.70;3.03;;;14.20;99.90;;;;;;7287919;19;20195;-78
2023/03/31 12:00:46;;;;;;;21.03;2.90;;;14.10;99.90;;;;;;7182598;19;2004909;-79
2023/03/31 12:03:55;;;;;;;19.67;2.93;;;13.90;99.90;;;;;;7283932;19;20183;-79
2023/03/31 12:06:26;;;;;;;13.70;2.60;;;13.80;99.90;;;;;;7160695;19;2004824;-79
2023/03/31 12:09:22;;;;;;;20.63;3.10;;;13.60;99.90;;;;;;7286002;19;20179;-78
2023/03/31 12:12:19;;;;;;;15.53;2.37;;;13.40;99.90;;;;;;7283951;19;20217;-79
2023/03/31 12:14:59;;;;;;;17.87;3.37;;;13.20;99.90;;;;;;7182608;19;2004681;-79
2023/03/31 12:17:28;;;;;;;17.57;2.97;;;13.00;99.90;;;;;;7182085;19;2004649;-79
2023/03/31 12:20:01;;;;;;;17.23;2.33;;;12.80;99.90;;;;;;7281340;19;20181;-79
2023/03/31 12:22:37;;;;;;;13.93;2.40;;;12.80;99.90;;;;;;7284615;19;20195;-79
2023/03/31 12:25:04;;;;;;;16.40;2.30;;;12.80;99.90;;;;;;7282228;19;20613;-79
2023/03/31 12:27:40;;;;;;;13.33;2.50;;;13.00;99.90;;;;;;7284145;19;20215;-79
2023/03/31 12:30:15;;;;;;;9.67;1.97;;;13.00;99.90;;;;;;7282983;19;20194;-79
2023/03/31 12:32:47;;;;;;;13.17;1.67;;;12.90;99.90;;;;;;7284734;19;20193;-79
2023/03/31 12:35:21;;;;;;;11.30;2.00;;;12.90;99.90;;;;;;7291727;19;20202;-79
2023/03/31 12:38:05;;;;;;;12.67;2.10;;;13.10;99.90;;;;;;7287310;19;20195;-79
2023/03/31 12:40:39;;;;;;;17.87;1.87;;;13.20;99.90;;;;;;7184349;19;2006425;-79
2023/03/31 12:43:33;;;;;;;13.30;2.27;;;13.50;99.90;;;;;;7288027;19;20195;-79
2023/03/31 12:46:20;;;;;;;13.83;2.27;;;13.70;99.90;;;;;;7183975;19;2004632;-79
2023/03/31 12:49:12;;;;;;;11.03;1.90;;;13.90;99.90;;;;;;7284197;19;20194;-79
2023/03/31 12:51:56;;;;;;;8.87;2.50;;;13.80;99.90;;;;;;7180723;19;2004886;-79
2023/03/31 12:55:00;;;;;;;9.83;1.53;;;14.00;99.90;;;;;;7261567;19;20258;-79
2023/03/31 12:57:26;;;;;;;10.60;1.50;;;14.10;99.90;;;;;;7181546;19;2004598;-80
2023/03/31 13:00:21;;;;;;;6.10;1.10;;;14.10;99.90;;;;;;7284012;19;20218;-78
2023/03/31 13:02:48;;;;;;;7.47;0.97;;;14.10;99.90;;;;;;7283931;19;20187;-79
2023/03/31 13:05:36;;;;;;;6.67;1.00;;;14.30;99.90;;;;;;7287977;19;20195;-79